createdAt,value
2019-05-10T00:04:54.252Z,0.37
2019-05-10T00:09:55.491Z,0.53
2019-05-10T00:14:56.810Z,0.50
2019-05-10T00:19:58.101Z,0.47
2019-05-10T00:25:04.349Z,0.43
2019-05-10T00:30:02.334Z,0.40
2019-05-10T00:35:03.745Z,0.50
2019-05-10T00:40:05.081Z,0.40
2019-05-10T00:45:06.386Z,0.60
2019-05-10T00:50:07.726Z,0.50
2019-05-10T00:55:18.426Z,0.50
2019-05-10T01:00:10.356Z,0.50
2019-05-10T01:05:11.747Z,0.50
2019-05-10T01:10:13.058Z,0.60
2019-05-10T01:15:14.373Z,0.60
2019-05-10T01:20:15.681Z,0.53
2019-05-10T01:25:17.035Z,0.57
2019-05-10T01:30:18.364Z,0.70
2019-05-10T01:35:19.676Z,0.60
2019-05-10T01:40:20.982Z,0.50
2019-05-10T01:45:22.283Z,0.60
2019-05-10T01:50:23.596Z,0.70
2019-05-10T01:55:24.880Z,0.60
2019-05-10T02:00:26.206Z,0.50
2019-05-10T02:05:27.596Z,0.60
2019-05-10T02:10:28.953Z,0.50
2019-05-10T02:15:30.257Z,0.53
2019-05-10T02:20:31.540Z,0.40
2019-05-10T02:25:32.852Z,0.70
2019-05-10T02:30:34.211Z,0.50
2019-05-10T02:35:35.590Z,0.60
2019-05-10T02:40:36.881Z,0.47
2019-05-10T02:45:38.216Z,0.60
2019-05-10T02:50:39.499Z,0.60
2019-05-10T02:55:40.850Z,0.60
2019-05-10T03:00:42.180Z,0.80
2019-05-10T03:05:48.150Z,0.60
2019-05-10T03:10:50.762Z,0.50
2019-05-10T03:15:52.080Z,0.60
2019-05-10T03:20:53.405Z,0.60
2019-05-10T03:25:54.750Z,0.60
2019-05-10T03:30:56.102Z,0.40
2019-05-10T03:35:57.507Z,0.60
2019-05-10T03:40:58.813Z,0.70
2019-05-10T03:46:00.888Z,0.80
2019-05-10T03:51:02.306Z,0.60
2019-05-10T03:56:03.666Z,0.47
2019-05-10T04:01:05.048Z,0.60
2019-05-10T04:06:06.487Z,0.50
2019-05-10T04:11:07.800Z,0.50
2019-05-10T04:16:09.095Z,1.13
2019-05-10T04:21:10.569Z,0.60
2019-05-10T04:26:11.918Z,0.60
2019-05-10T04:31:13.223Z,0.50
2019-05-10T04:36:14.603Z,0.80
2019-05-10T04:41:15.950Z,0.60
2019-05-10T04:46:17.273Z,0.60
2019-05-10T04:51:18.596Z,0.70
2019-05-10T04:56:19.915Z,0.60
2019-05-10T05:01:21.243Z,0.80
2019-05-10T05:06:22.660Z,0.87
2019-05-10T05:11:23.973Z,0.73
2019-05-10T05:16:25.288Z,0.60
2019-05-10T05:21:26.605Z,0.80
2019-05-10T05:26:28.657Z,0.90
2019-05-10T05:31:30.026Z,0.70
2019-05-10T05:36:31.341Z,0.60
2019-05-10T05:41:32.708Z,0.73
2019-05-10T05:46:34.005Z,0.70
2019-05-10T05:51:36.065Z,0.50
2019-05-10T05:56:37.480Z,0.60
2019-05-10T06:01:38.826Z,0.77
2019-05-10T06:06:40.381Z,1.03
2019-05-10T06:11:41.724Z,0.70
2019-05-10T06:16:45.059Z,0.90
2019-05-10T06:21:44.393Z,0.60
2019-05-10T06:26:45.707Z,0.80
2019-05-10T06:31:47.016Z,0.50
2019-05-10T06:36:48.336Z,0.63
2019-05-10T06:41:55.599Z,0.60
2019-05-10T06:46:50.973Z,0.60
2019-05-10T06:51:52.291Z,0.70
2019-05-10T06:56:54.334Z,0.50
2019-05-10T07:01:56.452Z,0.77
2019-05-10T07:06:58.525Z,0.80
2019-05-10T07:11:59.859Z,0.50
2019-05-10T07:17:02.658Z,0.70
2019-05-10T07:22:02.639Z,0.60
2019-05-10T07:27:05.843Z,0.63
2019-05-10T07:32:06.082Z,0.70
2019-05-10T07:37:08.229Z,0.60
2019-05-10T07:42:09.538Z,0.93
2019-05-10T07:47:10.845Z,0.50
2019-05-10T07:52:12.131Z,0.60
2019-05-10T07:57:13.425Z,0.60
2019-05-10T08:02:14.982Z,0.43
2019-05-10T08:07:18.446Z,0.33
2019-05-10T08:12:19.511Z,0.40
2019-05-10T08:17:19.564Z,0.40
2019-05-10T08:22:22.938Z,0.60
2019-05-10T08:27:23.015Z,0.50
2019-05-10T08:32:25.520Z,0.87
2019-05-10T08:37:33.120Z,0.50
2019-05-10T08:42:43.813Z,0.30
2019-05-10T08:47:28.039Z,0.70
2019-05-10T08:52:31.665Z,0.67
2019-05-10T08:57:34.904Z,0.50
2019-05-10T09:02:32.893Z,0.40
2019-05-10T09:07:36.970Z,0.70
2019-05-10T09:12:35.370Z,0.40
2019-05-10T09:17:36.684Z,0.60
2019-05-10T09:22:38.695Z,0.40
2019-05-10T09:27:39.296Z,0.40
2019-05-10T09:32:43.508Z,0.50
2019-05-10T09:37:42.671Z,0.60
2019-05-10T09:42:43.989Z,0.43
2019-05-10T09:47:45.378Z,0.33
2019-05-10T09:52:47.493Z,0.53
2019-05-10T09:57:48.903Z,0.50
2019-05-10T10:02:56.216Z,0.60
2019-05-10T10:07:51.576Z,0.57
2019-05-10T10:12:58.303Z,0.50
2019-05-10T10:17:54.202Z,0.40
2019-05-10T10:22:55.521Z,1.10
2019-05-10T10:27:57.450Z,0.93
2019-05-10T10:32:58.233Z,1.00
2019-05-10T10:38:02.969Z,1.00
2019-05-10T10:43:00.992Z,1.03
2019-05-10T10:48:08.549Z,1.23
2019-05-10T10:53:04.433Z,1.03
2019-05-10T10:58:07.357Z,1.10
2019-05-10T11:03:07.878Z,1.20
2019-05-10T11:08:11.180Z,1.00
2019-05-10T11:13:18.580Z,0.93
2019-05-10T11:18:12.731Z,0.77
2019-05-10T11:23:16.247Z,0.90
2019-05-10T11:28:15.434Z,0.97
2019-05-10T11:33:27.223Z,0.90
2019-05-10T11:38:18.180Z,0.80
2019-05-10T11:43:23.954Z,0.70
2019-05-10T11:48:21.604Z,0.50
2019-05-10T11:53:23.995Z,0.70
2019-05-10T11:58:23.957Z,0.60
2019-05-10T12:03:25.049Z,0.60
2019-05-10T12:08:26.436Z,0.30
2019-05-10T12:13:27.781Z,0.37
2019-05-10T12:18:32.475Z,0.43
2019-05-10T12:23:31.662Z,0.47
2019-05-10T12:28:35.483Z,0.40
2019-05-10T12:33:33.068Z,0.40
2019-05-10T12:38:35.927Z,0.47
2019-05-10T12:43:37.213Z,0.90
2019-05-10T12:48:38.539Z,0.53
2019-05-10T12:53:44.466Z,0.47
2019-05-10T12:58:41.253Z,0.50
2019-05-10T13:03:42.584Z,0.40
2019-05-10T13:08:44.645Z,0.47
2019-05-10T13:13:45.994Z,0.40
2019-05-10T13:18:51.725Z,0.50
2019-05-10T13:23:53.186Z,0.47
2019-05-10T13:28:50.711Z,0.40
2019-05-10T13:33:52.088Z,0.53
2019-05-10T13:38:54.225Z,0.43
2019-05-10T13:43:59.031Z,0.37
2019-05-10T13:48:56.848Z,0.40
2019-05-10T13:53:59.160Z,0.50
2019-05-10T13:59:13.693Z,0.50
2019-05-10T14:04:03.408Z,0.70
2019-05-10T14:09:02.229Z,0.47
2019-05-10T14:14:03.537Z,0.40
2019-05-10T14:19:04.823Z,0.40
2019-05-10T14:24:09.033Z,0.50
2019-05-10T14:29:11.068Z,0.47
2019-05-10T14:34:15.212Z,0.57
2019-05-10T14:39:11.034Z,0.60
2019-05-10T14:44:12.421Z,0.50
2019-05-10T14:49:14.284Z,0.40
2019-05-10T14:54:15.752Z,0.50
2019-05-10T14:59:17.061Z,0.50
2019-05-10T15:04:43.811Z,0.60
2019-05-10T15:09:23.959Z,0.53
2019-05-10T15:14:21.363Z,0.63
2019-05-10T15:19:25.890Z,0.90
2019-05-10T15:24:23.967Z,0.70
2019-05-10T15:29:25.262Z,0.57
2019-05-10T15:34:26.588Z,0.60
2019-05-10T15:39:28.745Z,0.60
2019-05-10T15:44:31.513Z,0.73
2019-05-10T15:49:30.722Z,0.83
2019-05-10T15:54:32.068Z,0.60
2019-05-10T15:59:33.448Z,0.60
2019-05-10T16:04:34.773Z,0.67
2019-05-10T16:09:36.862Z,0.70
2019-05-10T16:14:39.341Z,0.70
2019-05-10T16:19:39.514Z,0.40
2019-05-10T16:24:40.844Z,0.50
2019-05-10T16:29:42.887Z,0.60
2019-05-10T16:34:44.203Z,0.40
2019-05-10T16:39:45.582Z,0.30
2019-05-10T16:44:46.897Z,0.40
2019-05-10T16:49:53.193Z,0.50
2019-05-10T16:54:49.509Z,0.50
2019-05-10T16:59:50.820Z,0.57
2019-05-10T17:04:52.131Z,0.30
2019-05-10T17:09:54.703Z,0.40
2019-05-10T17:14:56.314Z,0.40
2019-05-10T17:19:58.746Z,0.47
2019-05-10T17:25:03.449Z,0.70
2019-05-10T17:29:59.706Z,0.60
2019-05-10T17:35:04.894Z,0.77
2019-05-10T17:40:04.645Z,0.63
2019-05-10T17:45:04.470Z,0.50
2019-05-10T17:50:05.127Z,0.60
2019-05-10T17:55:11.061Z,0.60
2019-05-10T18:00:07.920Z,0.70
2019-05-10T18:05:09.245Z,0.57
2019-05-10T18:10:10.654Z,0.70
2019-05-10T18:15:11.920Z,0.70
2019-05-10T18:20:13.266Z,0.60
2019-05-10T18:25:20.420Z,0.87
2019-05-10T18:30:16.000Z,0.80
2019-05-10T18:35:17.389Z,1.03
2019-05-10T18:40:19.227Z,1.10
2019-05-10T18:45:23.438Z,0.67
2019-05-10T18:50:23.694Z,0.97
2019-05-10T18:55:25.890Z,1.70
2019-05-10T19:00:27.194Z,1.20
2019-05-10T19:05:31.433Z,1.03
2019-05-10T19:10:29.857Z,0.90
2019-05-10T19:15:31.203Z,0.90
2019-05-10T19:20:32.609Z,1.27
2019-05-10T19:25:37.344Z,1.00
2019-05-10T19:30:36.171Z,1.77
2019-05-10T19:35:37.921Z,1.73
2019-05-10T19:40:39.001Z,2.13
2019-05-10T19:45:40.301Z,2.57
2019-05-10T19:50:41.622Z,3.57
2019-05-10T19:55:42.937Z,2.57
2019-05-10T20:00:45.005Z,3.13
2019-05-10T20:05:46.305Z,1.90
2019-05-10T20:10:48.366Z,1.93
2019-05-10T20:15:49.717Z,1.87
2019-05-10T20:20:51.026Z,2.00
2019-05-10T20:25:52.309Z,1.57
2019-05-10T20:30:53.596Z,1.47
2019-05-10T20:35:54.917Z,2.33
2019-05-10T20:40:56.305Z,1.70
2019-05-10T20:45:57.589Z,1.50
2019-05-10T20:50:58.926Z,1.57
2019-05-10T20:56:00.460Z,1.87
2019-05-10T21:01:02.571Z,1.63
2019-05-10T21:06:03.930Z,1.47
2019-05-10T21:11:05.247Z,1.70
2019-05-10T21:16:06.556Z,1.30
2019-05-10T21:21:07.853Z,1.20
2019-05-10T21:26:09.182Z,1.20
2019-05-10T21:31:10.516Z,1.30
2019-05-10T21:36:11.797Z,1.73
2019-05-10T21:41:13.914Z,1.60
2019-05-10T21:46:15.228Z,1.50
2019-05-10T21:51:17.279Z,1.10
2019-05-10T21:56:18.570Z,1.20
2019-05-10T22:01:21.862Z,1.30
2019-05-10T22:06:29.448Z,1.10
2019-05-10T22:11:30.775Z,1.13
2019-05-10T22:16:32.065Z,1.70
2019-05-10T22:21:33.375Z,1.80
2019-05-10T22:26:34.674Z,1.40
2019-05-10T22:31:35.982Z,1.13
2019-05-10T22:36:37.380Z,1.07
2019-05-10T22:41:39.538Z,1.20
2019-05-10T22:46:40.928Z,1.00
2019-05-10T22:51:43.021Z,0.77
2019-05-10T22:56:44.357Z,0.90
2019-05-10T23:01:45.698Z,0.80
2019-05-10T23:06:47.028Z,0.70
2019-05-10T23:11:48.428Z,0.70
2019-05-10T23:16:49.742Z,0.83
2019-05-10T23:21:51.076Z,0.60
2019-05-10T23:26:52.391Z,0.80
2019-05-10T23:31:53.666Z,0.70
2019-05-10T23:36:54.941Z,0.70
2019-05-10T23:41:56.266Z,0.90
2019-05-10T23:46:57.569Z,0.80
2019-05-10T23:51:58.972Z,1.10
2019-05-10T23:57:00.285Z,1.20
